Time;durP1;ratioP1;P1;durP2;ratioP2;P2;SDS_P1;SDS_P2;PMS_P1;PMS_P2;Temp;Humidity;BMP_temperature;BMP_pressure;BME280_temperature;BME280_humidity;BME280_pressure;Samples;Min_cycle;Max_cycle;Signal;HPM_P1;HPM_P2
2023/02/13 00:03:05;;;;;;;5.68;4.35;;;15.20;68.60;;;;;;10472861;28;20021;-59
2023/02/13 00:08:06;;;;;;;6.88;4.40;;;15.20;68.60;;;;;;10490540;28;20563;-57
2023/02/13 00:13:06;;;;;;;8.68;4.93;;;15.20;68.60;;;;;;10455802;28;20116;-56
2023/02/13 00:18:07;;;;;;;7.10;5.22;;;15.20;68.50;;;;;;10490406;28;20031;-56
2023/02/13 00:23:08;;;;;;;6.15;4.90;;;15.10;68.50;;;;;;10489900;28;20111;-56
2023/02/13 00:28:08;;;;;;;6.93;4.43;;;15.10;68.50;;;;;;10471988;28;20117;-55
2023/02/13 00:33:09;;;;;;;7.38;5.68;;;15.10;68.50;;;;;;10489114;28;20131;-56
2023/02/13 00:38:10;;;;;;;6.22;4.20;;;15.10;68.50;;;;;;10471528;28;20537;-54
2023/02/13 00:43:10;;;;;;;6.00;4.55;;;15.10;68.40;;;;;;10471386;28;20095;-55
2023/02/13 00:48:11;;;;;;;8.65;5.43;;;15.10;68.40;;;;;;10488931;28;20099;-56
2023/02/13 00:53:12;;;;;;;6.63;4.47;;;15.10;68.40;;;;;;10470908;28;20158;-56
2023/02/13 00:58:13;;;;;;;5.95;4.20;;;15.00;68.40;;;;;;10470559;28;20043;-56
2023/02/13 01:03:15;;;;;;;6.72;4.70;;;15.00;68.40;;;;;;10488216;28;20569;-56
2023/02/13 01:08:18;;;;;;;5.55;4.47;;;15.00;68.40;;;;;;10470249;28;20024;-56
2023/02/13 01:13:19;;;;;;;5.95;4.45;;;15.00;68.40;;;;;;10470542;28;20029;-55
2023/02/13 01:18:20;;;;;;;7.47;4.93;;;15.00;68.40;;;;;;10470450;28;20020;-54
2023/02/13 01:23:20;;;;;;;5.25;4.28;;;15.00;68.30;;;;;;10488016;28;20114;-55
2023/02/13 01:28:21;;;;;;;5.32;4.32;;;15.00;68.20;;;;;;10487750;28;20147;-56
2023/02/13 01:33:23;;;;;;;7.00;5.47;;;14.90;68.10;;;;;;10487863;28;20135;-55
2023/02/13 01:38:24;;;;;;;6.93;5.10;;;15.00;68.20;;;;;;10487795;28;20019;-56
2023/02/13 01:43:54;;;;;;;5.78;4.28;;;14.90;68.20;;;;;;10469434;28;20012;-54
2023/02/13 01:49:23;;;;;;;7.17;5.10;;;15.00;68.30;;;;;;10470026;28;20667;-57
2023/02/13 01:54:31;;;;;;;6.18;4.47;;;14.90;68.20;;;;;;10461049;28;20043;-56
2023/02/13 02:00:04;;;;;;;6.30;4.82;;;14.90;68.10;;;;;;10446824;28;20017;-56
2023/02/13 02:05:06;;;;;;;6.00;3.90;;;14.90;68.20;;;;;;10468755;28;20033;-55
2023/02/13 02:10:17;;;;;;;5.88;4.40;;;14.90;68.20;;;;;;10469337;28;20028;-55
2023/02/13 02:15:18;;;;;;;6.35;4.45;;;14.90;68.20;;;;;;10452872;28;20036;-56
2023/02/13 02:20:56;;;;;;;6.97;4.72;;;14.90;68.10;;;;;;10486709;28;20048;-56
2023/02/13 02:26:39;;;;;;;4.65;3.38;;;14.80;68.20;;;;;;10468821;28;20086;-55
2023/02/13 02:31:55;;;;;;;5.85;4.28;;;14.80;68.30;;;;;;10486501;28;20091;-56
2023/02/13 02:37:43;;;;;;;5.38;3.97;;;14.80;68.30;;;;;;10489429;28;20455;-55
2023/02/13 02:43:22;;;;;;;4.93;3.63;;;14.80;68.30;;;;;;10479047;28;20112;-55
2023/02/13 03:30:05;;;;;;;4.68;3.45;;;14.80;68.70;;;;;;10477806;28;20029;-55
2023/02/13 03:33:09;;;;;;;5.72;3.72;;;14.70;68.60;;;;;;10492035;28;20423;-55
2023/02/13 03:38:56;;;;;;;6.05;4.55;;;14.70;68.40;;;;;;10475369;28;20032;-56
2023/02/13 03:44:10;;;;;;;5.43;4.07;;;14.70;68.20;;;;;;10464482;28;20115;-54
2023/02/13 04:00:31;;;;;;;5.38;3.80;;;15.50;66.30;;;;;;10491177;28;20025;-56
2023/02/13 04:05:50;;;;;;;5.32;3.63;;;15.70;65.70;;;;;;10473895;28;20616;-55
2023/02/13 04:11:06;;;;;;;6.22;4.05;;;16.00;64.90;;;;;;10473898;28;20016;-55
2023/02/13 04:16:41;;;;;;;6.20;4.05;;;16.20;64.00;;;;;;10473278;28;20078;-56
2023/02/13 04:21:42;;;;;;;6.00;3.97;;;16.40;63.60;;;;;;10469194;28;20094;-56
2023/02/13 04:26:44;;;;;;;4.60;2.88;;;16.50;63.40;;;;;;10489898;28;20029;-56
2023/02/13 04:31:44;;;;;;;4.63;3.35;;;16.60;63.10;;;;;;10471949;28;20040;-55
2023/02/13 04:36:45;;;;;;;5.10;3.55;;;16.70;63.10;;;;;;10489669;28;20028;-56
2023/02/13 04:41:46;;;;;;;4.03;2.80;;;16.70;63.00;;;;;;10489750;28;20104;-55
2023/02/13 04:46:47;;;;;;;5.18;3.33;;;16.80;62.90;;;;;;10470921;28;20021;-56
2023/02/13 04:51:47;;;;;;;4.72;2.95;;;16.80;62.70;;;;;;10442857;28;20526;-55
2023/02/13 04:56:48;;;;;;;4.03;3.10;;;16.90;62.60;;;;;;10489111;28;20044;-56
2023/02/13 05:01:48;;;;;;;4.63;2.90;;;16.90;62.50;;;;;;10470056;28;20104;-56
2023/02/13 05:06:49;;;;;;;4.53;2.95;;;16.90;62.50;;;;;;10488648;28;20533;-56
2023/02/13 05:11:52;;;;;;;4.22;3.78;;;16.90;62.50;;;;;;10453446;28;20044;-56
2023/02/13 05:16:52;;;;;;;4.75;2.90;;;17.00;62.50;;;;;;10469922;28;20023;-56
2023/02/13 05:27:12;;;;;;;4.95;3.33;;;16.90;62.60;;;;;;10487901;28;20032;-56
2023/02/13 05:32:13;;;;;;;5.25;3.53;;;17.00;62.90;;;;;;10449157;28;20851;-55
2023/02/13 05:37:14;;;;;;;4.20;2.88;;;16.90;63.00;;;;;;10468672;28;20125;-54
2023/02/13 05:42:14;;;;;;;5.55;2.60;;;16.80;63.10;;;;;;10487685;28;20150;-55
2023/02/13 05:47:15;;;;;;;5.53;3.30;;;16.80;63.50;;;;;;10470328;28;20008;-55
2023/02/13 05:52:16;;;;;;;6.03;2.92;;;16.70;64.10;;;;;;10466125;28;20131;-55
2023/02/13 05:57:16;;;;;;;5.90;2.92;;;16.70;64.70;;;;;;10460210;28;20019;-57
2023/02/13 06:02:17;;;;;;;7.97;3.75;;;16.60;65.30;;;;;;10469193;28;20032;-56
2023/02/13 06:07:18;;;;;;;7.45;3.03;;;16.60;65.60;;;;;;10452774;28;20111;-54
2023/02/13 06:12:18;;;;;;;5.57;2.95;;;16.60;66.00;;;;;;10492618;28;20028;-54
2023/02/13 06:17:19;;;;;;;5.93;3.17;;;16.60;66.40;;;;;;10495357;28;20039;-55
2023/02/13 06:22:20;;;;;;;6.10;3.67;;;16.60;66.70;;;;;;10494976;28;20075;-55
2023/02/13 06:27:20;;;;;;;6.20;2.80;;;16.60;66.80;;;;;;10477287;28;20158;-56
2023/02/13 06:32:21;;;;;;;7.97;3.70;;;16.60;66.80;;;;;;10494692;28;20122;-53
2023/02/13 06:37:22;;;;;;;5.15;2.47;;;16.60;67.10;;;;;;10476366;28;20119;-56
2023/02/13 06:42:22;;;;;;;7.05;3.10;;;16.50;66.90;;;;;;10476551;28;20059;-54
2023/02/13 06:47:23;;;;;;;10.82;3.30;;;16.60;67.00;;;;;;10514616;28;20479;-53
2023/02/13 06:52:24;;;;;;;11.38;4.05;;;16.60;67.10;;;;;;10475095;28;20119;-54
2023/02/13 06:57:25;;;;;;;10.50;3.00;;;16.60;67.30;;;;;;10490648;28;20452;-54
2023/02/13 07:02:26;;;;;;;10.52;3.88;;;16.60;67.50;;;;;;10471147;28;20027;-55
2023/02/13 07:07:27;;;;;;;6.68;3.60;;;16.50;67.90;;;;;;10456591;28;20483;-54
2023/02/13 07:12:28;;;;;;;9.80;3.58;;;16.40;67.80;;;;;;10474586;28;20116;-55
2023/02/13 07:17:30;;;;;;;7.00;3.40;;;16.20;67.90;;;;;;10490548;28;20665;-54
2023/02/13 07:22:31;;;;;;;11.15;4.50;;;16.20;67.80;;;;;;10473202;28;20182;-54
2023/02/13 07:27:32;;;;;;;8.38;3.80;;;16.20;67.30;;;;;;10489359;28;20021;-54
2023/02/13 07:32:33;;;;;;;7.65;4.15;;;16.20;67.30;;;;;;10415610;28;20763;-54
2023/02/13 07:37:33;;;;;;;9.85;4.20;;;16.10;67.30;;;;;;10443991;28;20064;-53
2023/02/13 07:42:34;;;;;;;8.82;4.13;;;16.20;67.30;;;;;;10443772;28;20021;-54
2023/02/13 07:47:35;;;;;;;9.48;3.22;;;16.10;67.40;;;;;;10446585;28;20017;-54
2023/02/13 07:52:36;;;;;;;8.77;3.72;;;16.10;67.40;;;;;;10448172;28;20120;-54
2023/02/13 07:57:37;;;;;;;6.57;3.58;;;16.20;66.90;;;;;;10447822;28;20032;-53
2023/02/13 08:02:38;;;;;;;9.52;3.30;;;16.30;66.90;;;;;;10446300;28;20553;-55
2023/02/13 08:07:39;;;;;;;7.75;3.60;;;16.20;67.10;;;;;;10457903;28;20059;-55
2023/02/13 08:12:39;;;;;;;7.60;3.45;;;16.20;67.40;;;;;;10446809;28;20035;-54
2023/02/13 08:17:40;;;;;;;8.25;3.15;;;16.20;67.50;;;;;;10445697;28;20568;-54
2023/02/13 08:22:41;;;;;;;6.00;3.17;;;16.10;67.50;;;;;;10445315;28;20025;-54
2023/02/13 08:27:42;;;;;;;10.10;3.53;;;16.10;67.70;;;;;;10444753;28;20120;-53
2023/02/13 08:32:42;;;;;;;6.82;3.17;;;16.10;67.60;;;;;;10484165;28;20132;-54
2023/02/13 08:37:43;;;;;;;11.90;4.20;;;16.10;67.50;;;;;;10468948;28;20128;-54
2023/02/13 08:42:43;;;;;;;5.82;4.00;;;16.00;68.10;;;;;;10488386;28;20597;-53
2023/02/13 08:47:44;;;;;;;8.85;4.03;;;16.00;67.90;;;;;;10469346;28;20047;-55
2023/02/13 08:52:45;;;;;;;9.43;4.88;;;16.10;67.70;;;;;;10487447;28;20099;-54
2023/02/13 08:57:45;;;;;;;11.48;4.07;;;16.10;67.70;;;;;;10468290;28;20447;-53
2023/02/13 09:02:46;;;;;;;7.70;3.92;;;16.00;67.80;;;;;;10468472;28;20035;-54
2023/02/13 09:07:47;;;;;;;8.52;4.00;;;15.90;68.00;;;;;;10485891;28;20679;-53
2023/02/13 09:12:53;;;;;;;6.72;3.85;;;15.90;68.10;;;;;;10486654;28;20127;-53
2023/02/13 09:17:54;;;;;;;8.63;3.65;;;15.90;68.30;;;;;;10485614;28;20016;-54
2023/02/13 09:22:55;;;;;;;7.72;4.03;;;15.80;68.50;;;;;;10468263;28;20025;-54
2023/02/13 09:27:57;;;;;;;7.15;4.35;;;15.80;68.80;;;;;;10424754;28;20017;-55
2023/02/13 09:32:58;;;;;;;7.75;3.60;;;15.70;69.00;;;;;;10439540;28;20036;-55
2023/02/13 09:38:00;;;;;;;5.95;3.95;;;15.70;69.00;;;;;;10485825;28;20035;-56
2023/02/13 09:43:44;;;;;;;9.00;4.32;;;15.60;69.10;;;;;;10485860;28;20089;-56
2023/02/13 09:48:50;;;;;;;7.43;3.90;;;15.70;69.10;;;;;;10449995;28;20028;-58
2023/02/13 09:54:12;;;;;;;5.70;3.45;;;15.60;69.20;;;;;;10467875;28;20119;-55
2023/02/13 09:59:56;;;;;;;5.40;3.03;;;15.60;69.20;;;;;;10469526;28;20052;-56
2023/02/13 10:05:35;;;;;;;7.57;3.80;;;15.60;69.20;;;;;;10458364;28;20048;-55
2023/02/13 10:10:50;;;;;;;5.70;3.77;;;15.60;69.10;;;;;;10463207;28;20032;-56
2023/02/13 10:16:11;;;;;;;7.40;4.28;;;15.70;69.10;;;;;;10484697;28;20036;-56
2023/02/13 10:21:14;;;;;;;9.75;3.63;;;15.60;69.10;;;;;;10451200;28;20141;-57
2023/02/13 10:26:22;;;;;;;8.13;3.40;;;15.70;69.10;;;;;;10467390;28;20015;-57
2023/02/13 10:31:23;;;;;;;7.22;3.58;;;15.70;69.10;;;;;;10466843;28;20048;-57
2023/02/13 10:36:32;;;;;;;5.05;4.25;;;15.70;69.10;;;;;;10466668;28;20021;-53
2023/02/13 10:41:52;;;;;;;8.88;4.22;;;15.70;69.20;;;;;;10465926;28;20025;-52
2023/02/13 10:47:03;;;;;;;6.72;3.95;;;15.80;69.30;;;;;;10483254;28;20027;-54
2023/02/13 10:52:40;;;;;;;4.75;3.80;;;15.70;69.20;;;;;;10466286;28;20502;-55
2023/02/13 10:58:38;;;;;;;5.93;4.15;;;15.70;69.30;;;;;;10486393;28;20009;-54
2023/02/13 11:03:39;;;;;;;5.20;3.30;;;15.70;69.40;;;;;;10473928;28;20063;-54
2023/02/13 11:08:44;;;;;;;6.03;3.92;;;15.80;69.50;;;;;;10486605;28;20111;-55
2023/02/13 11:13:45;;;;;;;8.15;4.05;;;15.80;69.60;;;;;;10490037;28;20040;-54
2023/02/13 11:18:49;;;;;;;6.20;3.75;;;15.80;69.60;;;;;;10452420;28;20559;-54
2023/02/13 11:23:55;;;;;;;7.22;3.80;;;15.80;69.50;;;;;;10470118;28;20334;-53
2023/02/13 11:29:00;;;;;;;5.78;3.78;;;15.80;69.40;;;;;;10466621;28;20047;-54
2023/02/13 11:34:21;;;;;;;7.25;3.55;;;15.80;69.50;;;;;;10484953;28;20183;-55
2023/02/13 11:39:25;;;;;;;4.65;3.22;;;15.80;69.40;;;;;;10488830;28;20025;-55
2023/02/13 11:44:29;;;;;;;5.30;3.30;;;15.90;69.40;;;;;;10471951;28;20024;-55
2023/02/13 11:49:40;;;;;;;6.30;3.28;;;15.90;69.40;;;;;;10454705;28;20094;-55
2023/02/13 11:54:44;;;;;;;5.10;3.72;;;15.90;69.30;;;;;;10488780;28;20032;-54
2023/02/13 11:59:49;;;;;;;7.07;3.65;;;16.00;69.20;;;;;;10449894;28;20017;-54
2023/02/13 12:05:23;;;;;;;7.18;4.07;;;16.00;69.00;;;;;;10488613;28;20108;-54
2023/02/13 12:10:31;;;;;;;4.90;3.60;;;16.00;68.90;;;;;;10471296;28;20104;-54
2023/02/13 12:15:36;;;;;;;5.45;3.90;;;16.00;68.90;;;;;;10446768;28;20029;-55
2023/02/13 12:21:20;;;;;;;4.78;3.50;;;16.00;68.90;;;;;;10438738;28;20104;-53
2023/02/13 12:26:47;;;;;;;5.88;3.30;;;16.00;68.90;;;;;;10469725;28;20621;-54
2023/02/13 12:32:21;;;;;;;6.65;3.30;;;16.10;68.90;;;;;;10470021;28;20048;-52
2023/02/13 12:37:56;;;;;;;7.32;3.35;;;16.10;69.00;;;;;;10470018;28;20521;-53
2023/02/13 12:43:28;;;;;;;8.07;3.17;;;16.10;68.90;;;;;;10487572;28;20066;-53
2023/02/13 12:48:51;;;;;;;6.53;3.60;;;16.10;69.50;;;;;;10487141;28;20021;-53
2023/02/13 12:54:10;;;;;;;10.35;4.05;;;16.10;69.60;;;;;;10453687;28;20143;-54
2023/02/13 12:59:58;;;;;;;15.38;4.88;;;16.10;69.60;;;;;;10486812;28;20019;-54
2023/02/13 13:05:30;;;;;;;7.10;3.50;;;16.10;69.30;;;;;;10445026;28;20475;-53
2023/02/13 13:11:11;;;;;;;6.22;3.38;;;16.10;69.30;;;;;;10486254;28;20039;-53
2023/02/13 13:16:50;;;;;;;18.13;5.55;;;16.10;69.30;;;;;;10485861;28;20032;-55
2023/02/13 13:22:19;;;;;;;17.15;5.10;;;16.20;69.70;;;;;;10470011;28;20107;-55
2023/02/13 13:27:35;;;;;;;12.48;4.47;;;16.20;69.00;;;;;;10486058;28;20013;-53
2023/02/13 13:32:36;;;;;;;16.23;4.85;;;16.20;69.70;;;;;;10467624;28;20903;-56
2023/02/13 13:38:01;;;;;;;26.95;7.65;;;16.30;69.60;;;;;;10468378;28;20132;-54
2023/02/13 13:43:33;;;;;;;29.85;7.75;;;16.30;69.90;;;;;;10453049;28;20162;-55
2023/02/13 13:49:23;;;;;;;14.63;6.28;;;16.30;70.00;;;;;;10487052;28;20029;-56
2023/02/13 13:54:34;;;;;;;25.60;5.82;;;16.30;69.80;;;;;;10474414;28;20056;-54
2023/02/13 13:59:37;;;;;;;16.83;5.95;;;16.30;69.80;;;;;;10468789;28;20013;-52
2023/02/13 14:04:42;;;;;;;18.08;6.45;;;16.30;69.70;;;;;;10486734;28;20149;-54
2023/02/13 14:09:43;;;;;;;17.90;5.68;;;16.30;69.70;;;;;;10469565;28;20016;-55
2023/02/13 14:14:44;;;;;;;20.67;6.95;;;16.30;69.70;;;;;;10486577;28;20060;-53
2023/02/13 14:19:52;;;;;;;15.60;6.50;;;16.20;69.70;;;;;;10452132;28;20345;-54
2023/02/13 14:25:18;;;;;;;12.80;5.72;;;16.20;69.60;;;;;;10468738;28;20031;-54
2023/02/13 14:30:34;;;;;;;16.65;4.95;;;16.20;69.50;;;;;;10458827;28;20127;-54
2023/02/13 14:35:37;;;;;;;13.65;5.32;;;16.20;69.40;;;;;;10492918;28;20033;-55
2023/02/13 14:40:50;;;;;;;16.20;5.90;;;16.20;69.40;;;;;;10492780;28;20035;-56
2023/02/13 14:46:21;;;;;;;9.30;5.00;;;16.20;69.30;;;;;;10473225;28;20077;-55
2023/02/13 14:51:40;;;;;;;13.68;5.60;;;16.20;69.20;;;;;;10475339;28;20032;-57
2023/02/13 14:56:43;;;;;;;17.73;5.88;;;16.20;69.20;;;;;;10456222;28;20016;-53
2023/02/13 15:01:59;;;;;;;11.07;5.25;;;16.10;69.30;;;;;;10473369;28;20124;-54
2023/02/13 15:07:04;;;;;;;11.80;5.90;;;16.10;69.20;;;;;;10491040;28;20037;-57
2023/02/13 15:12:26;;;;;;;14.32;6.47;;;16.00;69.30;;;;;;10473091;28;20415;-56
2023/02/13 15:17:37;;;;;;;10.82;5.07;;;15.90;69.10;;;;;;10490886;28;20029;-56
2023/02/13 15:22:43;;;;;;;18.15;6.13;;;15.90;69.10;;;;;;10475185;28;20027;-55
2023/02/13 15:27:45;;;;;;;20.25;7.20;;;15.90;70.00;;;;;;10487356;28;20059;-56
2023/02/13 15:32:59;;;;;;;20.85;6.75;;;15.90;69.60;;;;;;10473884;28;20551;-56
2023/02/13 15:38:36;;;;;;;26.40;7.15;;;16.00;69.00;;;;;;10472071;28;20561;-55
2023/02/13 15:43:43;;;;;;;19.60;6.80;;;16.10;69.90;;;;;;10489028;28;20020;-56
2023/02/13 15:48:45;;;;;;;14.57;6.28;;;16.10;70.10;;;;;;10471582;28;20068;-55
2023/02/13 15:53:58;;;;;;;24.75;7.50;;;16.10;69.50;;;;;;10445853;28;20040;-56
2023/02/13 15:59:00;;;;;;;16.77;7.22;;;16.10;69.70;;;;;;10470793;28;20051;-57
2023/02/13 16:04:08;;;;;;;22.20;7.72;;;16.10;70.00;;;;;;10494597;28;20028;-57
2023/02/13 16:09:22;;;;;;;17.42;6.28;;;16.10;70.20;;;;;;10469389;28;20434;-57
2023/02/13 16:14:26;;;;;;;40.75;8.43;;;16.00;70.50;;;;;;10485841;28;20028;-57
2023/02/13 16:19:55;;;;;;;37.40;8.10;;;15.90;70.40;;;;;;10455725;28;20017;-56
2023/02/13 16:25:11;;;;;;;39.28;9.25;;;15.90;70.50;;;;;;10472746;28;20055;-54
2023/02/13 16:30:30;;;;;;;35.97;7.90;;;15.80;70.10;;;;;;10467521;28;20083;-57
2023/02/13 16:35:39;;;;;;;21.45;6.88;;;15.80;69.50;;;;;;10486591;28;20044;-54
2023/02/13 16:40:43;;;;;;;14.40;6.80;;;15.80;69.10;;;;;;10487555;28;20107;-55
2023/02/13 16:45:44;;;;;;;17.10;6.47;;;15.90;70.50;;;;;;10472928;28;20016;-57
2023/02/13 16:50:45;;;;;;;22.48;7.00;;;16.00;69.70;;;;;;10445408;28;20609;-56
2023/02/13 16:55:46;;;;;;;28.85;11.75;;;16.20;69.40;;;;;;10487747;28;20029;-56
2023/02/13 17:00:49;;;;;;;21.42;7.63;;;16.10;69.70;;;;;;10488090;28;20498;-56
2023/02/13 17:05:50;;;;;;;25.63;9.38;;;16.00;69.70;;;;;;10498821;28;20480;-55
2023/02/13 17:11:06;;;;;;;31.55;14.35;;;15.90;69.60;;;;;;10473655;28;20120;-56
2023/02/13 17:16:08;;;;;;;29.92;11.27;;;16.00;71.40;;;;;;10470464;28;20029;-57
2023/02/13 17:21:08;;;;;;;25.30;10.55;;;16.20;70.50;;;;;;10452667;28;20629;-58
2023/02/13 17:26:09;;;;;;;18.80;10.13;;;16.10;69.50;;;;;;10488029;28;20078;-56
2023/02/13 17:31:11;;;;;;;19.58;8.32;;;16.00;69.40;;;;;;10477710;28;20827;-56
2023/02/13 17:36:13;;;;;;;22.17;8.73;;;15.90;68.80;;;;;;10487576;28;20622;-56
2023/02/13 17:41:15;;;;;;;13.85;7.43;;;15.90;68.80;;;;;;10476089;28;20216;-57
2023/02/13 17:46:15;;;;;;;16.05;8.60;;;15.80;68.30;;;;;;10469491;28;20013;-55
2023/02/13 17:51:16;;;;;;;13.40;7.15;;;15.80;68.40;;;;;;10470837;28;20115;-56
2023/02/13 17:56:17;;;;;;;11.43;7.03;;;15.70;68.10;;;;;;10481757;28;20480;-57
2023/02/13 18:01:17;;;;;;;11.48;7.82;;;15.70;67.70;;;;;;10469158;28;20025;-57
2023/02/13 18:06:18;;;;;;;15.65;7.18;;;15.80;67.10;;;;;;10485845;28;20052;-56
2023/02/13 18:11:19;;;;;;;15.00;7.30;;;16.10;66.30;;;;;;10477301;28;20009;-56
2023/02/13 18:16:21;;;;;;;11.93;6.47;;;16.20;66.30;;;;;;10480188;28;20116;-56
2023/02/13 18:21:22;;;;;;;17.45;6.65;;;16.20;66.70;;;;;;10497676;28;20028;-56
2023/02/13 18:26:23;;;;;;;10.77;6.30;;;16.10;67.40;;;;;;10500037;28;20069;-55
2023/02/13 18:31:23;;;;;;;13.13;6.13;;;16.00;68.00;;;;;;10475875;28;20704;-55
2023/02/13 18:36:24;;;;;;;11.82;6.13;;;15.90;68.40;;;;;;10493125;28;20035;-54
2023/02/13 18:41:25;;;;;;;11.48;6.47;;;15.90;68.80;;;;;;10475388;28;20067;-56
2023/02/13 18:46:25;;;;;;;12.70;7.20;;;15.80;68.50;;;;;;10477985;28;20025;-54
2023/02/13 18:51:26;;;;;;;10.98;6.60;;;15.90;68.20;;;;;;10503328;28;20048;-55
2023/02/13 18:56:27;;;;;;;8.90;6.55;;;15.80;68.10;;;;;;10497920;28;20037;-56
2023/02/13 19:01:28;;;;;;;9.52;6.32;;;15.90;68.20;;;;;;10480699;28;20020;-55
2023/02/13 19:06:29;;;;;;;11.40;7.25;;;15.80;68.50;;;;;;10492632;28;20012;-55
2023/02/13 19:11:32;;;;;;;12.63;7.85;;;15.80;68.80;;;;;;10487373;28;20444;-55
2023/02/13 19:16:34;;;;;;;10.73;7.75;;;15.90;68.70;;;;;;10493906;28;20052;-56
2023/02/13 19:21:37;;;;;;;10.65;6.40;;;15.80;69.00;;;;;;10496189;28;20099;-56
2023/02/13 19:26:38;;;;;;;10.80;8.45;;;15.80;69.00;;;;;;10508107;28;20016;-56
2023/02/13 19:31:39;;;;;;;12.38;7.28;;;15.80;69.20;;;;;;10490942;28;20519;-56
2023/02/13 19:36:40;;;;;;;10.00;7.32;;;15.80;69.20;;;;;;10510004;28;20021;-57
2023/02/13 19:41:40;;;;;;;10.23;6.60;;;15.80;69.30;;;;;;10482241;28;20061;-55
2023/02/13 19:46:42;;;;;;;10.55;7.35;;;15.70;69.30;;;;;;10510234;28;20047;-56
2023/02/13 19:51:44;;;;;;;8.18;7.38;;;15.80;69.60;;;;;;10508759;28;20031;-56
2023/02/13 19:56:46;;;;;;;11.80;7.28;;;15.80;69.50;;;;;;10497293;28;20405;-57
2023/02/13 20:01:47;;;;;;;8.65;7.10;;;15.80;69.50;;;;;;10492219;28;20074;-57
2023/02/13 20:06:48;;;;;;;8.93;6.75;;;15.80;69.40;;;;;;10490710;28;20102;-56
2023/02/13 20:11:50;;;;;;;8.75;7.47;;;15.80;69.50;;;;;;10472459;28;20028;-57
2023/02/13 20:16:51;;;;;;;9.15;7.28;;;15.80;69.50;;;;;;10471114;28;20411;-55
2023/02/13 20:21:52;;;;;;;11.43;7.72;;;15.80;69.40;;;;;;10471945;28;20108;-56
2023/02/13 20:26:55;;;;;;;9.25;7.85;;;15.80;69.30;;;;;;10470943;28;20021;-56
2023/02/13 20:31:56;;;;;;;8.93;8.02;;;15.70;69.40;;;;;;10484482;28;20048;-58
2023/02/13 20:36:57;;;;;;;9.38;7.50;;;15.70;69.20;;;;;;10488181;28;20013;-57
2023/02/13 20:41:58;;;;;;;8.80;7.00;;;15.60;69.20;;;;;;10473786;28;20119;-57
2023/02/13 20:46:59;;;;;;;8.82;7.10;;;15.50;69.30;;;;;;10487885;28;20048;-56
2023/02/13 20:52:00;;;;;;;9.73;6.90;;;15.50;69.30;;;;;;10450670;28;20037;-55
2023/02/13 20:57:01;;;;;;;8.13;7.00;;;15.50;69.50;;;;;;10488248;28;20028;-57
2023/02/13 21:02:02;;;;;;;9.27;7.13;;;15.40;69.60;;;;;;10489132;28;20474;-55
2023/02/13 21:07:07;;;;;;;9.57;8.18;;;15.40;69.60;;;;;;10490028;28;20040;-56
2023/02/13 21:12:08;;;;;;;7.60;6.45;;;15.40;69.70;;;;;;10467615;28;20149;-56
2023/02/13 21:17:10;;;;;;;7.10;6.18;;;15.40;69.80;;;;;;10467314;28;20169;-58
2023/02/13 21:22:11;;;;;;;7.07;6.38;;;15.30;69.60;;;;;;10468282;28;20017;-57
2023/02/13 21:27:12;;;;;;;8.55;7.57;;;15.30;69.40;;;;;;10496424;28;20052;-56
2023/02/13 21:32:12;;;;;;;7.72;6.93;;;15.30;69.30;;;;;;10488085;28;20048;-58
2023/02/13 21:37:13;;;;;;;7.22;6.40;;;15.30;69.20;;;;;;10487438;28;20036;-57
2023/02/13 21:42:14;;;;;;;8.25;6.47;;;15.30;69.20;;;;;;10487569;28;20419;-56
2023/02/13 21:47:16;;;;;;;6.80;5.85;;;15.30;69.90;;;;;;10495995;28;20051;-57
2023/02/13 21:52:17;;;;;;;8.20;5.75;;;15.30;69.40;;;;;;10469693;28;20632;-56
2023/02/13 21:57:17;;;;;;;7.40;5.72;;;15.20;69.40;;;;;;10487179;28;20020;-57
2023/02/13 22:02:18;;;;;;;5.57;5.07;;;15.20;69.40;;;;;;10487071;28;20522;-55
2023/02/13 22:07:19;;;;;;;7.93;5.88;;;15.20;69.40;;;;;;10469546;28;20115;-57
2023/02/13 22:12:19;;;;;;;6.68;5.57;;;15.20;69.40;;;;;;10487707;28;20083;-57
2023/02/13 22:17:20;;;;;;;6.07;5.35;;;15.10;69.40;;;;;;10468077;28;20052;-57
2023/02/13 22:22:20;;;;;;;6.78;5.28;;;15.10;69.30;;;;;;10487318;28;20614;-57
2023/02/13 22:27:21;;;;;;;6.00;4.70;;;15.10;69.40;;;;;;10469213;28;20117;-57
2023/02/13 22:32:22;;;;;;;6.18;5.05;;;15.10;69.40;;;;;;10448771;28;20068;-56
2023/02/13 22:37:23;;;;;;;7.15;5.25;;;15.10;69.40;;;;;;10487211;28;20427;-56
2023/02/13 22:42:23;;;;;;;7.35;5.57;;;15.10;69.40;;;;;;10471535;28;20455;-56
2023/02/13 22:47:24;;;;;;;6.03;5.13;;;15.10;69.30;;;;;;10469121;28;20035;-56
2023/02/13 22:52:25;;;;;;;6.47;4.30;;;15.00;69.30;;;;;;10470629;28;20045;-57
2023/02/13 22:57:25;;;;;;;6.18;5.10;;;15.00;69.20;;;;;;10475985;28;20060;-57
2023/02/13 23:02:26;;;;;;;6.63;5.22;;;15.00;69.10;;;;;;10476278;28;20572;-57
2023/02/13 23:07:27;;;;;;;6.05;4.10;;;15.00;69.20;;;;;;10476027;28;20112;-55
2023/02/13 23:12:39;;;;;;;6.20;4.53;;;15.00;69.10;;;;;;10505025;28;20051;-57
2023/02/13 23:23:00;;;;;;;5.18;3.90;;;14.90;68.80;;;;;;10478178;28;20028;-56
2023/02/13 23:28:01;;;;;;;5.57;4.25;;;14.90;68.80;;;;;;10495195;28;20024;-57
2023/02/13 23:33:02;;;;;;;6.45;4.70;;;14.90;68.70;;;;;;10493572;28;20123;-57
2023/02/13 23:38:03;;;;;;;5.18;4.50;;;14.90;68.90;;;;;;10474790;28;20073;-56
2023/02/13 23:43:03;;;;;;;6.22;4.20;;;14.90;68.90;;;;;;10492368;28;20020;-57
2023/02/13 23:48:04;;;;;;;5.85;3.80;;;14.90;69.00;;;;;;10492303;28;20585;-57
2023/02/13 23:53:05;;;;;;;5.53;3.67;;;14.90;68.80;;;;;;10474432;28;20053;-56
2023/02/13 23:58:06;;;;;;;6.07;4.82;;;14.90;68.80;;;;;;10473519;28;20012;-57
